createdAt,value
2022-09-15T00:01:43.507Z,93429.22
2022-09-15T00:04:12.248Z,93428.69
2022-09-15T00:06:40.841Z,93425.44
2022-09-15T00:09:09.443Z,93428.00
2022-09-15T00:11:39.021Z,93420.34
2022-09-15T00:14:09.275Z,93423.53
2022-09-15T00:16:38.466Z,93423.34
2022-09-15T00:19:07.777Z,93423.50
2022-09-15T00:21:38.747Z,93422.34
2022-09-15T00:24:08.065Z,93420.34
2022-09-15T00:26:37.560Z,93422.72
2022-09-15T00:29:06.627Z,93422.53
2022-09-15T00:31:35.034Z,93420.22
2022-09-15T00:34:04.139Z,93422.91
2022-09-15T00:36:33.083Z,93418.25
2022-09-15T00:39:01.466Z,93412.16
2022-09-15T00:41:31.775Z,93418.69
2022-09-15T00:44:05.888Z,93416.31
2022-09-15T00:46:36.903Z,93415.94
2022-09-15T00:49:29.588Z,93426.00
2022-09-15T00:52:05.593Z,93419.44
2022-09-15T00:54:57.217Z,93420.84
2022-09-15T00:57:36.891Z,93419.84
2022-09-15T01:00:10.363Z,93430.34
2022-09-15T01:02:40.472Z,93423.44
2022-09-15T01:05:13.334Z,93431.00
2022-09-15T01:08:03.448Z,93434.84
2022-09-15T01:10:35.805Z,93429.59
2022-09-15T01:13:08.819Z,93424.56
2022-09-15T01:16:13.866Z,93434.97
2022-09-15T01:18:53.038Z,93433.28
2022-09-15T01:21:24.581Z,93423.31
2022-09-15T01:24:26.869Z,93426.69
2022-09-15T01:27:30.536Z,93428.56
2022-09-15T01:30:03.006Z,93429.22
2022-09-15T01:33:05.520Z,93421.63
2022-09-15T01:35:55.933Z,93424.41
2022-09-15T01:38:41.125Z,93429.09
2022-09-15T01:41:36.702Z,93432.50
2022-09-15T01:44:23.612Z,93434.69
2022-09-15T01:46:58.433Z,93427.97
2022-09-15T01:50:14.359Z,93437.19
2022-09-15T01:52:51.290Z,93433.22
2022-09-15T01:55:28.931Z,93432.44
2022-09-15T01:57:58.758Z,93441.84
2022-09-15T02:00:27.322Z,93432.75
2022-09-15T02:03:04.478Z,93437.38
2022-09-15T02:05:42.166Z,93438.38
2022-09-15T02:08:36.196Z,93436.00
2022-09-15T02:11:16.609Z,93435.88
2022-09-15T02:14:04.755Z,93447.03
2022-09-15T02:16:37.395Z,93447.03
2022-09-15T02:19:12.514Z,93443.09
2022-09-15T02:21:58.878Z,93442.06
2022-09-15T02:24:45.827Z,93451.63
2022-09-15T02:27:23.078Z,93450.59
2022-09-15T02:29:57.147Z,93449.00
2022-09-15T02:32:28.306Z,93457.59
2022-09-15T02:34:58.781Z,93461.63
2022-09-15T02:37:28.853Z,93456.06
2022-09-15T02:40:01.722Z,93454.78
2022-09-15T02:42:31.043Z,93456.50
2022-09-15T02:45:00.834Z,93455.75
2022-09-15T02:47:30.297Z,93456.03
2022-09-15T02:49:58.935Z,93453.63
2022-09-15T02:52:27.589Z,93452.22
2022-09-15T02:54:56.163Z,93456.78
2022-09-15T02:57:25.298Z,93463.22
2022-09-15T03:00:12.133Z,93456.81
2022-09-15T03:02:42.459Z,93457.41
2022-09-15T03:05:12.064Z,93457.47
2022-09-15T03:07:42.859Z,93460.16
2022-09-15T03:10:13.402Z,93459.94
2022-09-15T03:12:45.084Z,93462.38
2022-09-15T03:15:15.909Z,93462.44
2022-09-15T03:17:46.015Z,93460.31
2022-09-15T03:20:24.063Z,93461.66
2022-09-15T03:22:52.800Z,93458.75
2022-09-15T03:25:21.735Z,93467.84
2022-09-15T03:27:50.422Z,93465.44
2022-09-15T03:30:19.014Z,93467.34
2022-09-15T03:32:47.618Z,93456.41
2022-09-15T03:35:16.285Z,93460.97
2022-09-15T03:37:44.824Z,93469.25
2022-09-15T03:40:13.484Z,93472.75
2022-09-15T03:42:42.740Z,93468.47
2022-09-15T03:45:11.534Z,93463.41
2022-09-15T03:47:40.300Z,93469.56
2022-09-15T03:50:09.023Z,93467.97
2022-09-15T03:52:37.665Z,93475.97
2022-09-15T03:55:06.515Z,93476.50
2022-09-15T03:57:35.098Z,93465.31
2022-09-15T04:00:05.506Z,93476.53
2022-09-15T04:02:34.219Z,93476.25
2022-09-15T04:05:04.200Z,93470.41
2022-09-15T04:07:32.861Z,93471.22
2022-09-15T04:10:02.268Z,93470.13
2022-09-15T04:12:33.363Z,93467.47
2022-09-15T04:15:02.262Z,93470.69
2022-09-15T04:17:31.029Z,93472.56
2022-09-15T04:19:59.955Z,93477.63
2022-09-15T04:22:32.572Z,93471.75
2022-09-15T04:25:01.266Z,93462.97
2022-09-15T04:27:30.273Z,93468.03
2022-09-15T04:29:59.012Z,93465.06
2022-09-15T04:32:30.765Z,93464.50
2022-09-15T04:34:59.376Z,93466.09
2022-09-15T04:37:27.755Z,93464.75
2022-09-15T04:39:56.013Z,93464.19
2022-09-15T04:42:25.277Z,93467.66
2022-09-15T04:44:53.914Z,93459.41
2022-09-15T04:47:22.322Z,93457.78
2022-09-15T04:49:50.843Z,93462.56
2022-09-15T04:52:19.390Z,93462.03
2022-09-15T04:54:47.974Z,93465.75
2022-09-15T04:57:16.565Z,93463.88
2022-09-15T04:59:45.147Z,93451.84
2022-09-15T05:02:13.562Z,93456.09
2022-09-15T05:04:42.244Z,93458.22
2022-09-15T05:07:10.590Z,93459.81
2022-09-15T05:09:39.559Z,93455.00
2022-09-15T05:12:08.133Z,93453.66
2022-09-15T05:14:36.446Z,93458.94
2022-09-15T05:17:05.388Z,93457.91
2022-09-15T05:19:34.110Z,93456.81
2022-09-15T05:22:02.800Z,93451.72
2022-09-15T05:24:31.162Z,93459.69
2022-09-15T05:26:59.673Z,93457.25
2022-09-15T05:29:28.287Z,93455.69
2022-09-15T05:31:56.858Z,93457.53
2022-09-15T05:34:25.598Z,93452.97
2022-09-15T05:36:54.114Z,93458.00
2022-09-15T05:39:22.722Z,93456.38
2022-09-15T05:41:51.266Z,93457.97
2022-09-15T05:44:19.997Z,93460.84
2022-09-15T05:46:49.661Z,93469.34
2022-09-15T05:49:18.224Z,93465.31
2022-09-15T05:51:46.808Z,93466.88
2022-09-15T05:54:18.461Z,93460.44
2022-09-15T05:56:46.970Z,93470.28
2022-09-15T05:59:15.628Z,93464.66
2022-09-15T06:01:44.484Z,93466.81
2022-09-15T06:04:13.337Z,93473.69
2022-09-15T06:06:41.881Z,93470.50
2022-09-15T06:09:10.841Z,93467.81
2022-09-15T06:11:39.396Z,93470.47
2022-09-15T06:14:07.968Z,93472.31
2022-09-15T06:16:36.940Z,93467.81
2022-09-15T06:19:06.553Z,93466.16
2022-09-15T06:21:35.451Z,93475.72
2022-09-15T06:24:08.219Z,93465.53
2022-09-15T06:26:36.822Z,93472.47
2022-09-15T06:29:05.957Z,93471.44
2022-09-15T06:31:35.943Z,93471.44
2022-09-15T06:34:05.392Z,93470.44
2022-09-15T06:36:34.971Z,93467.22
2022-09-15T06:39:04.166Z,93466.41
2022-09-15T06:41:58.465Z,93468.53
2022-09-15T06:44:22.076Z,93474.13
2022-09-15T06:46:51.009Z,93479.72
2022-09-15T06:49:20.108Z,93470.63
2022-09-15T06:51:49.276Z,93475.97
2022-09-15T06:54:18.180Z,93475.34
2022-09-15T06:56:46.537Z,93470.78
2022-09-15T06:59:16.571Z,93467.03
2022-09-15T07:01:45.752Z,93470.19
2022-09-15T07:04:14.686Z,93479.75
2022-09-15T07:06:43.295Z,93467.53
2022-09-15T07:09:12.482Z,93469.09
2022-09-15T07:11:41.465Z,93463.31
2022-09-15T07:14:10.319Z,93471.78
2022-09-15T07:16:39.379Z,93466.47
2022-09-15T07:19:08.157Z,93473.38
2022-09-15T07:21:36.988Z,93474.69
2022-09-15T07:24:07.477Z,93463.78
2022-09-15T07:26:36.382Z,93463.72
2022-09-15T07:29:08.058Z,93465.06
2022-09-15T07:31:39.201Z,93467.47
2022-09-15T07:34:08.987Z,93465.88
2022-09-15T07:36:37.827Z,93472.78
2022-09-15T07:39:06.948Z,93462.38
2022-09-15T07:41:35.769Z,93465.28
2022-09-15T07:44:04.509Z,93466.88
2022-09-15T07:46:34.779Z,93465.53
2022-09-15T07:49:04.499Z,93465.78
2022-09-15T07:51:33.109Z,93465.25
2022-09-15T07:54:02.030Z,93469.16
2022-09-15T07:56:30.778Z,93470.75
2022-09-15T07:58:59.593Z,93463.28
2022-09-15T08:01:28.738Z,93470.47
2022-09-15T08:04:00.424Z,93471.22
2022-09-15T08:06:29.651Z,93470.97
2022-09-15T08:09:00.930Z,93469.34
2022-09-15T08:11:30.489Z,93475.13
2022-09-15T08:14:03.529Z,93473.78
2022-09-15T08:16:32.632Z,93477.19
2022-09-15T08:19:02.145Z,93475.53
2022-09-15T08:21:31.297Z,93476.56
2022-09-15T08:24:01.046Z,93468.56
2022-09-15T08:26:31.105Z,93474.66
2022-09-15T08:29:00.651Z,93473.75
2022-09-15T08:31:29.440Z,93477.22
2022-09-15T08:33:58.182Z,93476.16
2022-09-15T08:36:28.887Z,93474.16
2022-09-15T08:38:57.737Z,93470.19
2022-09-15T08:41:26.239Z,93476.91
2022-09-15T08:44:17.459Z,93474.47
2022-09-15T08:46:58.446Z,93474.28
2022-09-15T08:49:50.977Z,93479.59
2022-09-15T08:52:39.454Z,93476.63
2022-09-15T08:55:17.222Z,93469.75
2022-09-15T08:57:46.006Z,93475.16
2022-09-15T09:00:18.269Z,93475.97
2022-09-15T09:03:29.892Z,93482.09
2022-09-15T09:06:42.546Z,93479.50
2022-09-15T09:09:28.759Z,93478.31
2022-09-15T09:12:22.912Z,93480.63
2022-09-15T09:15:15.172Z,93476.88
2022-09-15T09:18:12.386Z,93479.34
2022-09-15T09:21:07.127Z,93479.13
2022-09-15T09:23:59.806Z,93479.34
2022-09-15T09:26:31.598Z,93481.03
2022-09-15T09:29:01.906Z,93485.84
2022-09-15T09:31:30.941Z,93479.25
2022-09-15T09:34:22.017Z,93486.66
2022-09-15T09:37:01.781Z,93484.88
2022-09-15T09:39:30.561Z,93475.91
2022-09-15T09:42:00.456Z,93479.19
2022-09-15T09:44:32.995Z,93478.69
2022-09-15T09:47:02.787Z,93479.75
2022-09-15T09:49:50.354Z,93476.22
2022-09-15T09:52:40.044Z,93476.53
2022-09-15T09:55:20.763Z,93470.19
2022-09-15T09:57:48.839Z,93475.25
2022-09-15T10:00:41.689Z,93466.97
2022-09-15T10:03:17.829Z,93468.28
2022-09-15T10:05:48.151Z,93470.63
2022-09-15T10:08:19.058Z,93461.06
2022-09-15T10:11:02.212Z,93463.63
2022-09-15T10:13:30.782Z,93463.56
2022-09-15T10:16:02.876Z,93474.16
2022-09-15T10:18:38.681Z,93471.63
2022-09-15T10:21:10.767Z,93467.84
2022-09-15T10:23:39.099Z,93477.47
2022-09-15T10:26:20.986Z,93460.72
2022-09-15T10:29:16.838Z,93464.41
2022-09-15T10:31:47.155Z,93460.63
2022-09-15T10:34:31.874Z,93466.97
2022-09-15T10:37:26.592Z,93457.19
2022-09-15T10:39:58.163Z,93459.03
2022-09-15T10:42:48.434Z,93463.13
2022-09-15T10:45:36.924Z,93458.00
2022-09-15T10:48:33.143Z,93462.25
2022-09-15T10:51:32.575Z,93456.16
2022-09-15T10:54:28.690Z,93448.19
2022-09-15T10:57:07.863Z,93451.75
2022-09-15T11:00:11.665Z,93450.59
2022-09-15T11:02:58.504Z,93455.06
2022-09-15T11:05:48.032Z,93444.38
2022-09-15T11:08:33.183Z,93446.47
2022-09-15T11:11:22.488Z,93442.47
2022-09-15T11:14:10.660Z,93436.22
2022-09-15T11:17:01.853Z,93434.88
2022-09-15T11:19:57.733Z,93436.28
2022-09-15T11:22:37.270Z,93435.91
2022-09-15T11:25:24.873Z,93433.03
2022-09-15T11:28:33.493Z,93430.69
2022-09-15T11:31:15.453Z,93429.25
2022-09-15T11:33:54.061Z,93434.00
2022-09-15T11:36:58.591Z,93432.09
2022-09-15T11:39:38.335Z,93417.94
2022-09-15T11:42:11.288Z,93419.72
2022-09-15T11:44:42.301Z,93423.13
2022-09-15T11:47:30.064Z,93414.13
2022-09-15T11:50:14.543Z,93418.31
2022-09-15T11:53:04.188Z,93418.88
2022-09-15T11:56:09.501Z,93418.88
2022-09-15T11:58:47.716Z,93412.63
2022-09-15T12:01:24.125Z,93420.50
2022-09-15T12:04:07.616Z,93415.69
2022-09-15T12:06:49.118Z,93417.44
2022-09-15T12:09:22.682Z,93416.41
2022-09-15T12:12:08.995Z,93412.06
2022-09-15T12:14:42.463Z,93408.69
2022-09-15T12:17:28.252Z,93414.56
2022-09-15T12:20:20.610Z,93414.06
2022-09-15T12:22:59.300Z,93413.03
2022-09-15T12:25:36.091Z,93410.94
2022-09-15T12:28:26.266Z,93417.03
2022-09-15T12:31:15.453Z,93418.97
2022-09-15T12:33:55.436Z,93413.59
2022-09-15T12:36:42.916Z,93403.72
2022-09-15T12:39:38.654Z,93405.16
2022-09-15T12:42:16.202Z,93400.09
2022-09-15T12:45:02.285Z,93402.44
2022-09-15T12:47:36.931Z,93405.31
2022-09-15T12:50:16.844Z,93402.91
2022-09-15T12:52:53.035Z,93404.75
2022-09-15T12:55:30.891Z,93400.44
2022-09-15T12:58:16.192Z,93401.16
2022-09-15T13:01:07.110Z,93399.94
2022-09-15T13:03:41.416Z,93397.16
2022-09-15T13:06:18.373Z,93402.28
2022-09-15T13:08:51.297Z,93400.03
2022-09-15T13:11:39.101Z,93396.50
2022-09-15T13:14:15.998Z,93391.84
2022-09-15T13:17:10.419Z,93395.16
2022-09-15T13:19:47.798Z,93396.13
2022-09-15T13:22:31.349Z,93395.88
2022-09-15T13:25:01.656Z,93401.41
2022-09-15T13:27:45.302Z,93403.00
2022-09-15T13:30:23.753Z,93411.84
2022-09-15T13:33:19.494Z,93401.34
2022-09-15T13:35:59.366Z,93409.34
2022-09-15T13:38:45.341Z,93413.28
2022-09-15T13:41:35.391Z,93410.63
2022-09-15T13:44:31.678Z,93406.94
2022-09-15T13:47:27.130Z,93411.22
2022-09-15T13:50:12.918Z,93406.72
2022-09-15T13:52:44.315Z,93414.97
2022-09-15T13:55:36.481Z,93415.53
2022-09-15T14:01:02.027Z,93410.06
2022-09-15T14:03:50.121Z,93411.19
2022-09-15T14:06:31.660Z,93416.81
2022-09-15T14:09:05.790Z,93410.63
2022-09-15T14:11:37.209Z,93416.56
2022-09-15T14:14:12.094Z,93422.25
2022-09-15T14:16:40.797Z,93421.03
2022-09-15T14:19:40.438Z,93423.56
2022-09-15T14:22:32.016Z,93418.66
2022-09-15T14:25:06.924Z,93427.78
2022-09-15T14:27:38.110Z,93424.47
2022-09-15T14:30:18.724Z,93426.44
2022-09-15T14:32:51.068Z,93420.13
2022-09-15T14:35:26.465Z,93430.31
2022-09-15T14:37:59.909Z,93426.38
2022-09-15T14:40:38.899Z,93419.34
2022-09-15T14:43:28.245Z,93423.47
2022-09-15T14:46:05.393Z,93419.34
2022-09-15T14:48:37.429Z,93423.97
2022-09-15T14:51:29.930Z,93416.09
2022-09-15T14:54:01.550Z,93418.53
2022-09-15T14:56:36.573Z,93425.28
2022-09-15T14:59:09.435Z,93415.84
2022-09-15T15:01:45.029Z,93423.94
2022-09-15T15:04:32.582Z,93422.72
2022-09-15T15:07:16.961Z,93421.47
2022-09-15T15:09:51.662Z,93408.25
2022-09-15T15:12:28.674Z,93408.34
2022-09-15T15:14:57.947Z,93415.41
2022-09-15T15:17:33.410Z,93409.56
2022-09-15T15:20:24.760Z,93410.44
2022-09-15T15:23:12.120Z,93406.22
2022-09-15T15:25:41.088Z,93413.22
2022-09-15T15:28:31.706Z,93412.47
2022-09-15T15:31:21.328Z,93412.00
2022-09-15T15:33:58.519Z,93414.41
2022-09-15T15:36:31.465Z,93414.69
2022-09-15T15:39:03.358Z,93413.88
2022-09-15T15:41:43.821Z,93415.97
2022-09-15T15:44:18.353Z,93409.00
2022-09-15T15:47:02.908Z,93413.22
2022-09-15T15:49:33.273Z,93412.13
2022-09-15T15:52:03.064Z,93417.41
2022-09-15T15:54:34.630Z,93417.06
2022-09-15T15:57:28.921Z,93401.81
2022-09-15T16:00:01.922Z,93416.06
2022-09-15T16:02:30.135Z,93417.53
2022-09-15T16:04:58.854Z,93415.63
2022-09-15T16:07:32.538Z,93417.44
2022-09-15T16:10:02.913Z,93414.66
2022-09-15T16:12:33.285Z,93417.63
2022-09-15T16:15:11.775Z,93422.53
2022-09-15T16:17:44.351Z,93421.28
2022-09-15T16:20:18.110Z,93418.97
2022-09-15T16:22:46.739Z,93412.66
2022-09-15T16:25:19.781Z,93409.41
2022-09-15T16:27:48.126Z,93410.97
2022-09-15T16:30:16.663Z,93412.28
2022-09-15T16:32:45.392Z,93406.19
2022-09-15T16:35:33.561Z,93403.84
2022-09-15T16:38:02.397Z,93402.63
2022-09-15T16:40:30.720Z,93407.34
2022-09-15T16:42:59.334Z,93401.91
2022-09-15T16:45:40.586Z,93396.41
2022-09-15T16:48:10.385Z,93395.97
2022-09-15T16:50:42.696Z,93401.97
2022-09-15T16:53:16.771Z,93398.19
2022-09-15T16:55:48.267Z,93401.06
2022-09-15T16:58:18.107Z,93400.13
2022-09-15T17:00:49.307Z,93399.19
2022-09-15T17:03:20.223Z,93395.63
2022-09-15T17:05:51.490Z,93400.91
2022-09-15T17:08:22.551Z,93398.28
2022-09-15T17:10:54.072Z,93393.97
2022-09-15T17:13:27.796Z,93388.38
2022-09-15T17:16:00.015Z,93389.13
2022-09-15T17:18:30.235Z,93379.63
2022-09-15T17:20:59.063Z,93379.31
2022-09-15T17:23:35.779Z,93381.94
2022-09-15T17:26:07.834Z,93387.03
2022-09-15T17:28:38.232Z,93395.19
2022-09-15T17:31:13.076Z,93374.59
2022-09-15T17:33:41.952Z,93375.66
2022-09-15T17:36:11.047Z,93382.13
2022-09-15T17:38:41.951Z,93373.03
2022-09-15T17:41:19.540Z,93381.66
2022-09-15T17:43:48.322Z,93371.78
2022-09-15T17:46:17.071Z,93378.00
2022-09-15T17:48:45.757Z,93376.69
2022-09-15T17:51:18.538Z,93363.50
2022-09-15T17:53:48.130Z,93361.72
2022-09-15T17:56:16.722Z,93359.19
2022-09-15T17:58:45.970Z,93367.63
2022-09-15T18:01:15.836Z,93368.56
2022-09-15T18:03:46.360Z,93364.72
2022-09-15T18:06:14.909Z,93360.56
2022-09-15T18:08:43.342Z,93361.94
2022-09-15T18:11:16.716Z,93357.38
2022-09-15T18:13:45.375Z,93349.47
2022-09-15T18:16:15.592Z,93356.75
2022-09-15T18:18:44.345Z,93350.91
2022-09-15T18:21:26.378Z,93344.75
2022-09-15T18:23:54.956Z,93350.94
2022-09-15T18:26:26.300Z,93343.94
2022-09-15T18:28:55.668Z,93346.47
2022-09-15T18:31:24.230Z,93337.91
2022-09-15T18:33:53.279Z,93338.88
2022-09-15T18:36:22.073Z,93340.13
2022-09-15T18:38:50.615Z,93348.22
2022-09-15T18:41:19.779Z,93340.75
2022-09-15T18:43:50.287Z,93335.19
2022-09-15T18:46:19.228Z,93328.69
2022-09-15T18:48:48.115Z,93331.69
2022-09-15T18:51:24.123Z,93334.06
2022-09-15T18:53:58.784Z,93320.41
2022-09-15T18:56:27.387Z,93318.63
2022-09-15T18:58:56.442Z,93322.59
2022-09-15T19:01:25.421Z,93319.75
2022-09-15T19:03:54.209Z,93317.16
2022-09-15T19:06:22.817Z,93318.59
2022-09-15T19:08:51.341Z,93312.56
2022-09-15T19:11:21.154Z,93312.13
2022-09-15T19:13:49.835Z,93312.63
2022-09-15T19:16:22.750Z,93319.00
2022-09-15T19:18:52.118Z,93309.38
2022-09-15T19:21:25.166Z,93313.28
2022-09-15T19:23:59.543Z,93310.72
2022-09-15T19:26:30.647Z,93321.06
2022-09-15T19:28:59.661Z,93313.22
2022-09-15T19:31:28.448Z,93313.22
2022-09-15T19:33:56.803Z,93306.16
2022-09-15T19:36:29.218Z,93305.47
2022-09-15T19:38:58.167Z,93316.59
2022-09-15T19:41:26.935Z,93297.38
2022-09-15T19:43:55.318Z,93297.22
2022-09-15T19:46:26.132Z,93299.59
2022-09-15T19:48:55.654Z,93302.28
2022-09-15T19:51:24.855Z,93296.22
2022-09-15T19:53:57.823Z,93295.44
2022-09-15T19:56:28.011Z,93295.16
2022-09-15T19:58:58.343Z,93287.53
2022-09-15T20:01:29.475Z,93285.94
2022-09-15T20:03:58.834Z,93285.94
2022-09-15T20:06:31.690Z,93291.81
2022-09-15T20:09:01.373Z,93280.59
2022-09-15T20:11:31.177Z,93287.94
2022-09-15T20:14:01.117Z,93284.50
2022-09-15T20:16:30.454Z,93282.94
2022-09-15T20:18:59.385Z,93283.72
2022-09-15T20:21:50.667Z,93285.47
2022-09-15T20:24:21.314Z,93285.16
2022-09-15T20:26:50.117Z,93291.13
2022-09-15T20:29:18.989Z,93283.09
2022-09-15T20:31:48.125Z,93278.66
2022-09-15T20:34:17.070Z,93282.41
2022-09-15T20:36:46.009Z,93284.91
2022-09-15T20:39:16.608Z,93279.13
2022-09-15T20:41:48.223Z,93283.78
2022-09-15T20:44:17.368Z,93275.97
2022-09-15T20:46:46.270Z,93286.16
2022-09-15T20:49:14.862Z,93272.94
2022-09-15T20:51:43.574Z,93279.19
2022-09-15T20:54:12.622Z,93271.00
2022-09-15T20:56:40.962Z,93276.13
2022-09-15T20:59:11.773Z,93279.09
2022-09-15T21:01:40.922Z,93277.72
2022-09-15T21:04:11.005Z,93280.16
2022-09-15T21:06:40.056Z,93281.63
2022-09-15T21:09:08.606Z,93277.22
2022-09-15T21:11:37.705Z,93283.88
2022-09-15T21:14:06.593Z,93278.63
2022-09-15T21:16:35.819Z,93279.44
2022-09-15T21:19:05.595Z,93266.88
2022-09-15T21:21:35.361Z,93275.94
2022-09-15T21:24:07.181Z,93269.28
2022-09-15T21:27:01.260Z,93260.53
2022-09-15T21:29:31.405Z,93269.13
2022-09-15T21:31:59.974Z,93267.84
2022-09-15T21:34:29.427Z,93261.16
2022-09-15T21:36:59.234Z,93262.25
2022-09-15T21:39:27.772Z,93265.75
2022-09-15T21:41:56.293Z,93261.78
2022-09-15T21:44:24.988Z,93258.28
2022-09-15T21:46:54.015Z,93260.84
2022-09-15T21:49:22.559Z,93255.59
2022-09-15T21:51:51.128Z,93254.81
2022-09-15T21:54:19.643Z,93245.22
2022-09-15T21:56:48.157Z,93252.63
2022-09-15T21:59:19.196Z,93249.44
2022-09-15T22:01:47.824Z,93253.56
2022-09-15T22:04:16.621Z,93255.72
2022-09-15T22:06:46.122Z,93241.16
2022-09-15T22:11:46.966Z,93240.78
2022-09-15T22:14:15.903Z,93237.63
2022-09-15T22:16:44.838Z,93242.97
2022-09-15T22:19:14.529Z,93233.94
2022-09-15T22:21:43.839Z,93224.00
2022-09-15T22:24:14.619Z,93219.56
2022-09-15T22:26:44.671Z,93210.03
2022-09-15T22:29:13.741Z,93220.84
2022-09-15T22:31:43.425Z,93218.94
2022-09-15T22:34:12.044Z,93215.56
2022-09-15T22:36:40.578Z,93214.59
2022-09-15T22:39:09.364Z,93216.72
2022-09-15T22:41:40.321Z,93216.66
2022-09-15T22:44:18.024Z,93221.03
2022-09-15T22:46:46.903Z,93214.31
2022-09-15T22:49:15.484Z,93211.34
2022-09-15T22:51:44.193Z,93196.31
2022-09-15T22:54:12.795Z,93201.56
2022-09-15T22:56:41.314Z,93199.50
2022-09-15T22:59:10.329Z,93199.19
2022-09-15T23:01:38.985Z,93197.47
2022-09-15T23:04:07.617Z,93184.91
2022-09-15T23:06:36.425Z,93188.72
2022-09-15T23:09:08.039Z,93180.50
2022-09-15T23:11:38.687Z,93183.38
2022-09-15T23:14:08.955Z,93178.75
2022-09-15T23:16:37.688Z,93181.63
2022-09-15T23:19:06.600Z,93172.88
2022-09-15T23:21:35.785Z,93177.19
2022-09-15T23:24:04.511Z,93175.91
2022-09-15T23:26:33.351Z,93171.63
2022-09-15T23:29:01.856Z,93168.28
2022-09-15T23:31:30.423Z,93171.94
2022-09-15T23:33:58.797Z,93160.81
2022-09-15T23:36:27.328Z,93161.94
2022-09-15T23:38:56.422Z,93163.69
2022-09-15T23:41:26.036Z,93164.94
2022-09-15T23:43:54.660Z,93164.78
2022-09-15T23:46:23.244Z,93162.09
2022-09-15T23:48:51.894Z,93167.16
2022-09-15T23:51:20.515Z,93168.59
2022-09-15T23:53:49.133Z,93162.25
2022-09-15T23:56:17.924Z,93156.84
2022-09-15T23:58:49.484Z,93159.38
